Time;durP1;ratioP1;P1;durP2;ratioP2;P2;SDS_P1;SDS_P2;PMS_P1;PMS_P2;Temp;Humidity;BMP_temperature;BMP_pressure;BME280_temperature;BME280_humidity;BME280_pressure;Samples;Min_cycle;Max_cycle;Signal;HPM_P1;HPM_P2
2022/08/12 00:43:28;;;;;;;2.50;2.30;;;;;;;;;;1705046;28;10261626;-88
2022/08/12 00:44:28;;;;;;;3.00;2.58;;;;;;;;;;2057293;28;20056;-86
2022/08/12 00:46:29;;;;;;;4.28;2.50;;;;;;;;;;2048731;29;20042;-87
2022/08/12 00:46:55;;;;;;;2.53;2.33;;;;;;;;;;2051545;28;20035;-86
2022/08/12 00:47:56;;;;;;;3.30;2.63;;;;;;;;;;2057195;28;20035;-87
2022/08/12 00:48:57;;;;;;;3.63;2.65;;;;;;;;;;2057186;28;20038;-87
2022/08/12 00:49:57;;;;;;;3.38;2.53;;;;;;;;;;2057049;28;20430;-87
2022/08/12 00:51:00;;;;;;;2.80;2.38;;;;;;;;;;2048563;29;20122;-88
2022/08/12 00:52:06;;;;;;;3.03;2.72;;;;;;;;;;2040712;29;20032;-87
2022/08/12 00:53:08;;;;;;;3.65;2.42;;;;;;;;;;2041378;29;20024;-87
2022/08/12 00:54:09;;;;;;;2.78;2.50;;;;;;;;;;2048574;28;20038;-87
2022/08/12 00:55:09;;;;;;;3.45;2.85;;;;;;;;;;2057236;28;20050;-87
2022/08/12 00:56:10;;;;;;;2.70;2.33;;;;;;;;;;2057095;28;20054;-87
2022/08/12 00:57:13;;;;;;;3.40;2.50;;;;;;;;;;2057224;28;20390;-87
2022/08/12 00:58:16;;;;;;;2.70;2.38;;;;;;;;;;2048361;29;20396;-87
2022/08/12 00:59:17;;;;;;;3.45;3.03;;;;;;;;;;2040766;29;20438;-87
2022/08/12 01:00:20;;;;;;;2.72;2.25;;;;;;;;;;2040435;29;20039;-88
2022/08/12 01:01:21;;;;;;;4.47;2.65;;;;;;;;;;2048933;28;20026;-87
2022/08/12 01:02:27;;;;;;;3.03;2.40;;;;;;;;;;2057019;28;20059;-87
2022/08/12 01:11:27;;;;;;;3.42;2.60;;;;;;;;;;2057049;28;20420;-87
2022/08/12 01:11:35;;;;;;;4.47;2.67;;;;;;;;;;2056942;28;20038;-87
2022/08/12 01:12:37;;;;;;;4.18;2.85;;;;;;;;;;2032636;28;20042;-87
2022/08/12 01:13:57;;;;;;;4.15;2.58;;;;;;;;;;2056942;28;20499;-87
2022/08/12 01:14:58;;;;;;;4.10;3.05;;;;;;;;;;2048341;29;20075;-86
2022/08/12 01:16:01;;;;;;;2.95;2.75;;;;;;;;;;2048545;28;20585;-87
2022/08/12 01:17:02;;;;;;;3.17;2.85;;;;;;;;;;2056991;28;20038;-87
2022/08/12 01:18:04;;;;;;;4.57;2.40;;;;;;;;;;2048373;29;20411;-87
2022/08/12 01:19:04;;;;;;;3.83;3.10;;;;;;;;;;2048500;28;20042;-87
2022/08/12 01:20:06;;;;;;;3.00;2.70;;;;;;;;;;2048264;29;20433;-87
2022/08/12 01:21:44;;;;;;;3.25;2.92;;;;;;;;;;2048292;28;20035;-87
2022/08/12 01:23:02;;;;;;;3.95;2.63;;;;;;;;;;2057202;28;20800;-87
2022/08/12 01:24:27;;;;;;;3.50;2.70;;;;;;;;;;2064470;28;20156;-91
2022/08/12 01:25:34;;;;;;;3.88;3.03;;;;;;;;;;2050976;29;20023;-89
2022/08/12 01:26:38;;;;;;;3.35;2.67;;;;;;;;;;1714039;28;10001611;-92
2022/08/12 01:27:39;;;;;;;4.05;3.03;;;;;;;;;;2056427;28;20114;-92
2022/08/12 01:28:42;;;;;;;3.53;2.90;;;;;;;;;;2049179;28;20098;-91
2022/08/12 01:29:43;;;;;;;4.78;3.10;;;;;;;;;;2049070;29;20027;-92
2022/08/12 01:30:44;;;;;;;3.40;2.90;;;;;;;;;;2040916;29;20472;-93
2022/08/12 01:31:48;;;;;;;5.20;3.20;;;;;;;;;;2040991;29;20040;-93
2022/08/12 01:32:50;;;;;;;3.97;3.05;;;;;;;;;;2049571;28;20467;-93
2022/08/12 01:33:58;;;;;;;4.05;2.92;;;;;;;;;;2048904;29;20406;-92
2022/08/12 01:35:06;;;;;;;4.90;3.30;;;;;;;;;;1701294;28;10001266;-91
2022/08/12 01:36:09;;;;;;;3.33;3.03;;;;;;;;;;2041916;29;20040;-92
2022/08/12 01:37:12;;;;;;;2.97;2.67;;;;;;;;;;2049640;28;20177;-93
2022/08/12 01:38:18;;;;;;;3.90;3.08;;;;;;;;;;2048658;28;20037;-93
2022/08/12 01:39:27;;;;;;;3.95;3.10;;;;;;;;;;2041858;29;20031;-95
2022/08/12 01:40:30;;;;;;;2.97;2.38;;;;;;;;;;2052560;28;20593;-91
2022/08/12 01:41:38;;;;;;;3.90;3.15;;;;;;;;;;2054483;29;20034;-89
2022/08/12 01:42:49;;;;;;;3.70;2.90;;;;;;;;;;2055928;29;20043;-92
2022/08/12 01:43:50;;;;;;;4.50;3.40;;;;;;;;;;2050259;28;20061;-93
2022/08/12 01:44:56;;;;;;;4.88;3.40;;;;;;;;;;2049589;28;20081;-93
2022/08/12 01:46:08;;;;;;;4.05;3.33;;;;;;;;;;2049319;28;20061;-94
2022/08/12 01:47:41;;;;;;;3.88;3.20;;;;;;;;;;2042791;29;20159;-94
2022/08/12 01:48:54;;;;;;;3.70;3.30;;;;;;;;;;2045693;29;20019;-93
2022/08/12 01:50:17;;;;;;;4.78;3.25;;;;;;;;;;2043017;29;20073;-94
2022/08/12 01:51:41;;;;;;;4.30;3.40;;;;;;;;;;2049285;29;20031;-92
2022/08/12 01:52:51;;;;;;;4.18;3.20;;;;;;;;;;2044551;29;20103;-93
2022/08/12 01:54:03;;;;;;;4.25;3.00;;;;;;;;;;2042523;29;20415;-93
2022/08/12 01:55:06;;;;;;;4.10;3.33;;;;;;;;;;2042734;29;20160;-93
2022/08/12 01:56:09;;;;;;;3.72;3.33;;;;;;;;;;2049449;29;20027;-93
2022/08/12 01:57:38;;;;;;;3.50;3.03;;;;;;;;;;2043742;29;20027;-90
2022/08/12 02:00:07;;;;;;;4.38;3.03;;;;;;;;;;2053464;28;20054;-94
2022/08/12 02:01:10;;;;;;;3.63;3.10;;;;;;;;;;2049620;29;20086;-94
2022/08/12 02:02:15;;;;;;;5.90;3.17;;;;;;;;;;2041563;29;20034;-93
2022/08/12 02:03:21;;;;;;;3.75;3.05;;;;;;;;;;2041337;29;20039;-93
2022/08/12 02:11:17;;;;;;;4.63;3.65;;;;;;;;;;2057768;28;20113;-93
2022/08/12 02:12:40;;;;;;;3.75;3.33;;;;;;;;;;2048859;29;20568;-93
2022/08/12 02:14:14;;;;;;;4.47;2.95;;;;;;;;;;1362152;28;10002039;-93
2022/08/12 02:15:30;;;;;;;6.43;3.35;;;;;;;;;;2045176;29;20117;-92
2022/08/12 02:16:55;;;;;;;5.47;3.60;;;;;;;;;;2043086;29;20483;-92
2022/08/12 02:18:23;;;;;;;3.97;3.58;;;;;;;;;;2044010;29;20031;-93
2022/08/12 02:19:36;;;;;;;5.55;3.92;;;;;;;;;;2052738;28;20022;-93
2022/08/12 02:21:02;;;;;;;4.72;3.78;;;;;;;;;;2048762;29;20470;-92
2022/08/12 02:22:28;;;;;;;4.47;3.97;;;;;;;;;;2051955;28;20494;-92
2022/08/12 02:23:30;;;;;;;3.58;3.20;;;;;;;;;;2048889;29;20023;-92
2022/08/12 02:24:33;;;;;;;4.10;3.38;;;;;;;;;;1694659;29;10169872;-92
2022/08/12 02:25:40;;;;;;;3.85;3.20;;;;;;;;;;2041896;29;20055;-93
2022/08/12 02:26:45;;;;;;;4.53;3.28;;;;;;;;;;2050869;28;20022;-93
2022/08/12 02:27:51;;;;;;;4.82;3.70;;;;;;;;;;2049341;29;20122;-93
2022/08/12 02:28:52;;;;;;;5.10;3.63;;;;;;;;;;2041507;29;20026;-94
2022/08/12 02:29:52;;;;;;;3.70;3.15;;;;;;;;;;2040973;29;20031;-93
2022/08/12 02:30:54;;;;;;;5.03;3.35;;;;;;;;;;2040762;29;20031;-93
2022/08/12 02:31:56;;;;;;;3.55;3.05;;;;;;;;;;2048944;28;20023;-92
2022/08/12 02:32:59;;;;;;;3.50;2.97;;;;;;;;;;2050569;29;20031;-92
2022/08/12 02:34:01;;;;;;;4.13;3.67;;;;;;;;;;2043056;29;20030;-92
2022/08/12 02:35:01;;;;;;;5.03;3.47;;;;;;;;;;2049575;29;20502;-93
2022/08/12 02:36:04;;;;;;;3.65;3.28;;;;;;;;;;2040907;29;20115;-93
2022/08/12 02:37:07;;;;;;;3.50;3.08;;;;;;;;;;2049162;28;20027;-92
2022/08/12 02:38:10;;;;;;;4.72;3.20;;;;;;;;;;2057665;28;20027;-92
2022/08/12 02:39:14;;;;;;;4.53;3.45;;;;;;;;;;2049596;29;20525;-92
2022/08/12 02:40:16;;;;;;;4.93;3.85;;;;;;;;;;2041809;29;20201;-92
2022/08/12 02:41:20;;;;;;;4.20;3.00;;;;;;;;;;2040726;29;20406;-93
2022/08/12 02:42:22;;;;;;;3.72;3.00;;;;;;;;;;2041150;29;20019;-94
2022/08/12 02:43:33;;;;;;;4.53;3.28;;;;;;;;;;2040846;29;20566;-93
2022/08/12 02:44:38;;;;;;;5.65;3.67;;;;;;;;;;2042063;28;20024;-93
2022/08/12 02:46:03;;;;;;;3.72;3.05;;;;;;;;;;2041382;29;20023;-93
2022/08/12 02:47:07;;;;;;;5.30;3.28;;;;;;;;;;2038552;29;20079;-92
2022/08/12 02:48:09;;;;;;;5.03;3.50;;;;;;;;;;2041128;29;20150;-92
2022/08/12 02:49:30;;;;;;;4.57;3.40;;;;;;;;;;2049645;28;20122;-91
2022/08/12 02:50:33;;;;;;;3.97;3.45;;;;;;;;;;2049013;29;20130;-95
2022/08/12 02:51:38;;;;;;;4.43;3.70;;;;;;;;;;2041070;29;20051;-93
2022/08/12 02:52:39;;;;;;;3.47;3.15;;;;;;;;;;2048477;28;20039;-93
2022/08/12 02:53:40;;;;;;;4.57;3.58;;;;;;;;;;2048524;28;20023;-94
2022/08/12 02:54:44;;;;;;;3.65;3.22;;;;;;;;;;2057309;28;20031;-92
2022/08/12 02:55:45;;;;;;;5.00;3.63;;;;;;;;;;2048637;29;20034;-93
2022/08/12 02:56:46;;;;;;;5.65;3.75;;;;;;;;;;2048418;28;20087;-92
2022/08/12 02:57:46;;;;;;;4.68;3.88;;;;;;;;;;2056757;28;20393;-92
2022/08/12 02:58:47;;;;;;;4.57;3.78;;;;;;;;;;2048217;29;20015;-93
2022/08/12 02:59:48;;;;;;;4.78;3.55;;;;;;;;;;2040604;29;20034;-93
2022/08/12 03:00:49;;;;;;;5.90;3.38;;;;;;;;;;2048409;28;20102;-93
2022/08/12 03:01:52;;;;;;;5.70;3.22;;;;;;;;;;2048376;29;20406;-93
2022/08/12 03:02:55;;;;;;;4.55;3.60;;;;;;;;;;2040462;29;20055;-92
2022/08/12 03:03:58;;;;;;;5.85;4.15;;;;;;;;;;2040486;29;20026;-92
2022/08/12 03:05:02;;;;;;;7.32;3.92;;;;;;;;;;2048298;29;20034;-93
2022/08/12 03:06:07;;;;;;;3.78;3.15;;;;;;;;;;2040061;29;20031;-92
2022/08/12 03:07:28;;;;;;;4.35;3.40;;;;;;;;;;2048943;28;20031;-92
2022/08/12 03:08:35;;;;;;;3.47;3.05;;;;;;;;;;2048105;29;20030;-92
2022/08/12 03:09:53;;;;;;;5.03;3.65;;;;;;;;;;2040793;29;20387;-92
2022/08/12 03:10:56;;;;;;;5.20;3.42;;;;;;;;;;2034655;29;20115;-93
2022/08/12 03:12:08;;;;;;;6.13;4.30;;;;;;;;;;2041138;28;20095;-93
2022/08/12 03:13:11;;;;;;;4.32;3.60;;;;;;;;;;2056743;28;20086;-93
2022/08/12 03:14:13;;;;;;;3.92;3.45;;;;;;;;;;2056547;28;20027;-92
2022/08/12 03:15:16;;;;;;;4.75;3.67;;;;;;;;;;2056610;28;20030;-91
2022/08/12 03:16:19;;;;;;;5.32;3.47;;;;;;;;;;2057511;28;20085;-91
2022/08/12 03:17:35;;;;;;;3.88;3.40;;;;;;;;;;2049299;29;20027;-92
2022/08/12 03:18:36;;;;;;;4.38;3.83;;;;;;;;;;2042477;29;20250;-91
2022/08/12 03:19:38;;;;;;;4.45;3.70;;;;;;;;;;2048001;29;20023;-90
2022/08/12 03:20:39;;;;;;;5.55;4.20;;;;;;;;;;2047942;28;20500;-91
2022/08/12 03:21:41;;;;;;;5.57;3.47;;;;;;;;;;2047955;29;20110;-90
2022/08/12 03:22:49;;;;;;;4.07;3.50;;;;;;;;;;2047971;28;20642;-91
2022/08/12 03:23:52;;;;;;;4.85;3.65;;;;;;;;;;2056021;28;20019;-92
2022/08/12 03:24:53;;;;;;;4.13;3.67;;;;;;;;;;1696955;28;10269282;-92
2022/08/12 03:25:55;;;;;;;4.63;3.60;;;;;;;;;;2048124;28;20488;-92
2022/08/12 03:26:57;;;;;;;5.57;3.75;;;;;;;;;;2056244;28;20118;-91
2022/08/12 03:27:58;;;;;;;4.47;3.70;;;;;;;;;;2047583;29;20027;-91
2022/08/12 03:29:01;;;;;;;4.50;3.60;;;;;;;;;;2039868;29;20102;-91
2022/08/12 03:30:02;;;;;;;5.28;3.70;;;;;;;;;;2040264;29;20034;-91
2022/08/12 03:31:05;;;;;;;5.55;3.33;;;;;;;;;;2039939;29;20118;-92
2022/08/12 03:32:06;;;;;;;6.28;3.70;;;;;;;;;;2040447;29;20462;-91
2022/08/12 03:33:08;;;;;;;3.80;3.15;;;;;;;;;;2047560;28;20031;-92
2022/08/12 03:34:13;;;;;;;5.20;3.78;;;;;;;;;;2056094;28;20149;-91
2022/08/12 03:35:27;;;;;;;6.88;3.70;;;;;;;;;;2047328;29;20430;-92
2022/08/12 03:36:33;;;;;;;4.85;3.78;;;;;;;;;;2049345;28;20490;-91
2022/08/12 03:37:36;;;;;;;5.00;3.65;;;;;;;;;;2047707;29;20086;-91
2022/08/12 03:38:41;;;;;;;5.22;3.67;;;;;;;;;;2047860;28;20027;-91
2022/08/12 03:39:44;;;;;;;5.50;3.28;;;;;;;;;;2057059;28;20053;-91
2022/08/12 03:42:37;;;;;;;5.50;4.22;;;;;;;;;;2052934;28;20034;-92
2022/08/12 04:00:24;;;;;;;5.13;3.83;;;;;;;;;;1704607;28;10258126;-92
2022/08/12 04:01:26;;;;;;;5.75;4.28;;;;;;;;;;2056401;28;20035;-91
2022/08/12 04:02:27;;;;;;;5.72;4.00;;;;;;;;;;2049342;29;20027;-92
2022/08/12 04:04:48;;;;;;;5.82;4.10;;;;;;;;;;1705775;28;10251921;-91
2022/08/12 04:05:49;;;;;;;5.78;3.97;;;;;;;;;;2057980;28;20121;-91
2022/08/12 04:06:50;;;;;;;5.20;4.07;;;;;;;;;;2057770;28;20030;-91
2022/08/12 04:08:01;;;;;;;6.13;3.51;;;;;;;;;;2047124;28;10203120;-91
2022/08/12 04:09:04;;;;;;;5.53;4.15;;;;;;;;;;2050777;28;20279;-91
2022/08/12 04:10:06;;;;;;;4.70;3.90;;;;;;;;;;2049111;29;20023;-91
2022/08/12 04:13:47;;;;;;;5.47;3.50;;;;;;;;;;2058052;28;20070;-91
2022/08/12 04:14:48;;;;;;;7.85;4.15;;;;;;;;;;2057982;28;20026;-92
2022/08/12 04:15:49;;;;;;;7.13;3.60;;;;;;;;;;2049473;29;20119;-91
2022/08/12 04:16:50;;;;;;;7.00;4.25;;;;;;;;;;2049339;29;20526;-90
2022/08/12 04:17:51;;;;;;;3.72;3.28;;;;;;;;;;2049347;29;20023;-90
2022/08/12 04:18:52;;;;;;;4.45;3.60;;;;;;;;;;2041572;29;20574;-92
2022/08/12 04:19:54;;;;;;;5.72;3.80;;;;;;;;;;2041245;29;20079;-91
2022/08/12 04:20:55;;;;;;;5.47;3.53;;;;;;;;;;2041312;29;20032;-91
2022/08/12 04:21:56;;;;;;;4.97;3.75;;;;;;;;;;2041376;29;20028;-93
2022/08/12 04:22:57;;;;;;;8.20;4.68;;;;;;;;;;2041469;29;20038;-91
2022/08/12 04:23:59;;;;;;;5.07;4.15;;;;;;;;;;2049343;28;20034;-92
2022/08/12 04:25:00;;;;;;;6.55;4.32;;;;;;;;;;2057436;28;20125;-92
2022/08/12 04:26:00;;;;;;;7.63;4.28;;;;;;;;;;2050558;29;20417;-92
2022/08/12 04:27:04;;;;;;;4.85;3.70;;;;;;;;;;2041583;29;20036;-92
2022/08/12 04:28:07;;;;;;;6.85;4.28;;;;;;;;;;2050066;28;20035;-92
2022/08/12 04:29:09;;;;;;;7.78;4.68;;;;;;;;;;2053033;29;20026;-91
2022/08/12 04:30:10;;;;;;;6.97;4.80;;;;;;;;;;2059855;28;20034;-90
2022/08/12 04:31:12;;;;;;;4.43;3.65;;;;;;;;;;2059589;29;20051;-91
2022/08/12 04:32:12;;;;;;;7.25;4.22;;;;;;;;;;2046715;29;20043;-91
2022/08/12 04:33:13;;;;;;;6.97;4.25;;;;;;;;;;2041449;29;20114;-91
2022/08/12 04:34:15;;;;;;;6.88;4.05;;;;;;;;;;2049303;29;20027;-91
2022/08/12 04:35:15;;;;;;;5.20;3.85;;;;;;;;;;2049462;28;20107;-91
2022/08/12 04:36:17;;;;;;;5.25;3.97;;;;;;;;;;1729639;29;10282207;-93
2022/08/12 04:37:18;;;;;;;6.07;4.35;;;;;;;;;;2049416;28;20260;-93
2022/08/12 04:38:19;;;;;;;5.90;4.88;;;;;;;;;;2049344;29;20031;-91
2022/08/12 04:39:23;;;;;;;6.18;4.20;;;;;;;;;;2041643;29;20091;-93
2022/08/12 04:40:26;;;;;;;5.65;4.20;;;;;;;;;;2041537;29;20054;-92
2022/08/12 04:41:27;;;;;;;4.65;4.03;;;;;;;;;;2041574;29;20028;-91
2022/08/12 04:42:28;;;;;;;6.18;4.65;;;;;;;;;;2049392;28;20083;-90
2022/08/12 04:43:28;;;;;;;5.30;4.22;;;;;;;;;;2057739;28;20069;-91
2022/08/12 04:44:30;;;;;;;6.95;4.18;;;;;;;;;;2057857;28;20073;-90
2022/08/12 04:45:33;;;;;;;5.45;4.00;;;;;;;;;;2049063;29;20114;-90
2022/08/12 04:46:34;;;;;;;4.85;3.50;;;;;;;;;;2041192;29;20091;-93
2022/08/12 04:47:35;;;;;;;5.53;3.88;;;;;;;;;;2040987;29;20113;-92
2022/08/12 04:48:36;;;;;;;6.13;3.95;;;;;;;;;;2041156;29;20023;-94
2022/08/12 04:49:39;;;;;;;5.25;4.07;;;;;;;;;;1720806;29;10360211;-94
2022/08/12 04:50:40;;;;;;;4.82;3.92;;;;;;;;;;2041563;29;20320;-92
2022/08/12 04:51:41;;;;;;;7.03;4.15;;;;;;;;;;2041406;29;20454;-93
2022/08/12 04:52:41;;;;;;;6.32;3.80;;;;;;;;;;2040695;29;20106;-88
2022/08/12 04:53:44;;;;;;;5.35;4.10;;;;;;;;;;2048515;29;20031;-88
2022/08/12 04:54:46;;;;;;;6.88;3.85;;;;;;;;;;2048416;29;20050;-88
2022/08/12 04:55:47;;;;;;;4.28;3.63;;;;;;;;;;2048786;28;20070;-88
2022/08/12 04:56:51;;;;;;;5.10;4.10;;;;;;;;;;2057017;28;20561;-89
2022/08/12 04:57:52;;;;;;;5.93;3.60;;;;;;;;;;2057134;28;20023;-88
2022/08/12 04:58:54;;;;;;;3.97;3.55;;;;;;;;;;2057140;28;20038;-88
2022/08/12 04:59:54;;;;;;;3.92;3.53;;;;;;;;;;2048261;29;20410;-88
2022/08/12 05:00:54;;;;;;;6.10;3.25;;;;;;;;;;2048268;29;20039;-88
2022/08/12 05:01:56;;;;;;;4.07;3.20;;;;;;;;;;2057150;28;20031;-88
2022/08/12 05:02:56;;;;;;;7.95;4.25;;;;;;;;;;2057391;28;20465;-89
2022/08/12 05:03:58;;;;;;;4.40;4.00;;;;;;;;;;2057275;28;20037;-87
2022/08/12 05:05:00;;;;;;;5.03;4.10;;;;;;;;;;2057528;28;20121;-88
2022/08/12 05:06:01;;;;;;;6.22;4.32;;;;;;;;;;2056971;28;20093;-88
2022/08/12 05:07:02;;;;;;;5.30;3.63;;;;;;;;;;2056651;28;20071;-88
2022/08/12 05:08:06;;;;;;;4.15;3.50;;;;;;;;;;2056722;28;20034;-88
2022/08/12 05:09:07;;;;;;;3.97;3.38;;;;;;;;;;2056693;28;20031;-88
2022/08/12 05:10:08;;;;;;;4.28;3.53;;;;;;;;;;2056493;28;20031;-89
2022/08/12 05:11:09;;;;;;;4.53;4.00;;;;;;;;;;2056910;28;20030;-88
2022/08/12 05:12:10;;;;;;;3.90;3.20;;;;;;;;;;2056587;28;20026;-88
2022/08/12 05:13:14;;;;;;;4.18;3.78;;;;;;;;;;2047057;28;20467;-87
2022/08/12 05:14:15;;;;;;;4.43;3.45;;;;;;;;;;2040459;29;20099;-87
2022/08/12 05:15:16;;;;;;;6.13;4.30;;;;;;;;;;2040966;29;20065;-87
2022/08/12 05:16:16;;;;;;;5.28;3.75;;;;;;;;;;2049177;29;20031;-87
2022/08/12 05:17:19;;;;;;;4.75;3.28;;;;;;;;;;2056016;28;20548;-87
2022/08/12 05:18:20;;;;;;;4.57;3.08;;;;;;;;;;2055733;28;20023;-88
2022/08/12 05:19:21;;;;;;;4.93;3.40;;;;;;;;;;2055903;28;20114;-88
2022/08/12 05:20:22;;;;;;;4.28;3.60;;;;;;;;;;2047241;29;20043;-87
2022/08/12 05:21:22;;;;;;;4.93;3.17;;;;;;;;;;2047638;29;20417;-88
2022/08/12 05:22:23;;;;;;;3.85;3.22;;;;;;;;;;2037025;28;20035;-88
2022/08/12 05:23:23;;;;;;;5.45;3.60;;;;;;;;;;2047271;29;20023;-89
2022/08/12 05:24:23;;;;;;;4.30;3.25;;;;;;;;;;2056356;28;20086;-89
2022/08/12 05:25:26;;;;;;;4.43;3.40;;;;;;;;;;2047818;29;20092;-88
2022/08/12 05:26:28;;;;;;;4.55;3.50;;;;;;;;;;2048754;28;20037;-88
2022/08/12 05:27:28;;;;;;;4.05;3.28;;;;;;;;;;2056597;28;20041;-89
2022/08/12 05:28:29;;;;;;;3.33;2.92;;;;;;;;;;2047881;29;20031;-88
2022/08/12 05:29:30;;;;;;;3.78;3.10;;;;;;;;;;2047748;29;20098;-88
2022/08/12 05:30:32;;;;;;;4.53;3.30;;;;;;;;;;2056577;28;20470;-88
2022/08/12 05:31:32;;;;;;;3.85;3.53;;;;;;;;;;1713038;28;10000306;-88
2022/08/12 05:32:33;;;;;;;3.38;3.08;;;;;;;;;;2055911;28;20025;-88
2022/08/12 05:33:38;;;;;;;3.25;2.95;;;;;;;;;;2048046;29;20030;-88
2022/08/12 05:34:39;;;;;;;3.45;2.75;;;;;;;;;;2048555;28;20557;-88
2022/08/12 05:35:43;;;;;;;3.67;3.03;;;;;;;;;;2056939;28;20058;-89
2022/08/12 05:36:44;;;;;;;3.03;2.70;;;;;;;;;;2057057;28;20026;-88
2022/08/12 05:37:44;;;;;;;4.85;3.00;;;;;;;;;;2047669;29;20107;-88
2022/08/12 05:38:55;;;;;;;3.35;3.05;;;;;;;;;;2039631;29;20099;-89
2022/08/12 05:39:57;;;;;;;3.00;2.70;;;;;;;;;;2049329;28;20042;-89
2022/08/12 05:40:58;;;;;;;3.50;2.97;;;;;;;;;;2047666;29;20106;-88
2022/08/12 05:41:58;;;;;;;3.97;2.72;;;;;;;;;;2047890;28;20011;-89
2022/08/12 05:42:59;;;;;;;3.05;2.78;;;;;;;;;;2056671;28;20019;-89
2022/08/12 05:44:04;;;;;;;4.47;3.22;;;;;;;;;;2056651;28;20038;-88
2022/08/12 05:45:06;;;;;;;3.60;3.30;;;;;;;;;;2056712;28;20027;-88
2022/08/12 05:46:06;;;;;;;3.38;3.03;;;;;;;;;;2056720;28;20031;-90
2022/08/12 05:47:06;;;;;;;4.25;3.05;;;;;;;;;;2056372;28;20098;-88
2022/08/12 05:48:07;;;;;;;5.60;3.00;;;;;;;;;;1703971;28;10271182;-89
2022/08/12 05:49:08;;;;;;;3.25;2.95;;;;;;;;;;2056324;28;20457;-89
2022/08/12 05:50:09;;;;;;;3.00;2.65;;;;;;;;;;2047482;29;20383;-89
2022/08/12 05:51:10;;;;;;;3.25;2.95;;;;;;;;;;2047871;29;20505;-88
2022/08/12 05:52:10;;;;;;;3.30;2.80;;;;;;;;;;2056874;28;20102;-96
2022/08/12 05:53:12;;;;;;;3.40;3.05;;;;;;;;;;2049257;29;20358;-94
2022/08/12 05:54:12;;;;;;;2.90;2.60;;;;;;;;;;2041380;29;20024;-95
2022/08/12 05:55:12;;;;;;;3.83;3.30;;;;;;;;;;2041466;29;20067;-95
2022/08/12 05:56:24;;;;;;;5.25;3.95;;;;;;;;;;2049196;28;20031;-94
2022/08/12 05:57:25;;;;;;;4.50;3.50;;;;;;;;;;1708888;28;10149983;-95
2022/08/12 05:58:25;;;;;;;7.05;3.75;;;;;;;;;;2048547;29;20514;-95
2022/08/12 05:59:26;;;;;;;4.63;3.25;;;;;;;;;;2040910;29;20023;-94
2022/08/12 06:00:28;;;;;;;4.47;3.10;;;;;;;;;;2040665;29;20122;-94
2022/08/12 06:01:29;;;;;;;4.55;3.22;;;;;;;;;;2042491;29;20058;-93
2022/08/12 06:02:29;;;;;;;5.88;3.60;;;;;;;;;;2041100;29;20034;-93
2022/08/12 06:03:30;;;;;;;3.33;3.03;;;;;;;;;;2048866;29;20474;-93
2022/08/12 06:04:30;;;;;;;3.38;2.85;;;;;;;;;;2049552;29;20019;-93
2022/08/12 06:05:36;;;;;;;3.00;2.80;;;;;;;;;;2048781;29;20058;-94
2022/08/12 06:06:43;;;;;;;3.30;2.53;;;;;;;;;;2041313;29;20031;-94
2022/08/12 06:07:45;;;;;;;3.10;2.80;;;;;;;;;;2049879;28;20023;-93
2022/08/12 06:08:47;;;;;;;5.38;2.72;;;;;;;;;;2050449;29;20027;-94
2022/08/12 06:09:49;;;;;;;3.55;2.83;;;;;;;;;;2050772;28;20023;-93
2022/08/12 06:10:49;;;;;;;3.65;2.78;;;;;;;;;;2059207;28;20533;-94
2022/08/12 06:11:50;;;;;;;2.80;2.45;;;;;;;;;;2057595;28;20101;-95
2022/08/12 06:12:51;;;;;;;5.90;2.53;;;;;;;;;;2049331;29;20023;-95
2022/08/12 06:13:54;;;;;;;2.85;2.53;;;;;;;;;;2041611;29;20031;-94
2022/08/12 06:14:55;;;;;;;2.88;2.60;;;;;;;;;;2041344;28;20466;-93
2022/08/12 06:15:56;;;;;;;3.03;2.70;;;;;;;;;;2049043;29;20162;-95
2022/08/12 06:16:56;;;;;;;3.00;2.70;;;;;;;;;;2048908;29;20019;-93
2022/08/12 06:18:11;;;;;;;3.05;2.50;;;;;;;;;;2048665;29;20537;-95
2022/08/12 06:19:11;;;;;;;2.90;2.60;;;;;;;;;;2050850;28;20031;-91
2022/08/12 06:20:14;;;;;;;4.00;2.55;;;;;;;;;;2054111;28;20023;-92
2022/08/12 06:21:17;;;;;;;3.15;2.47;;;;;;;;;;2056032;28;20038;-91
2022/08/12 06:22:17;;;;;;;4.80;2.63;;;;;;;;;;2049794;29;20045;-94
2022/08/12 06:23:18;;;;;;;3.20;2.63;;;;;;;;;;2049430;29;20081;-94
2022/08/12 06:24:23;;;;;;;3.83;2.80;;;;;;;;;;2041030;29;20028;-94
2022/08/12 06:25:28;;;;;;;4.82;2.30;;;;;;;;;;2041269;29;20034;-95
2022/08/12 06:26:28;;;;;;;2.30;2.10;;;;;;;;;;2041535;29;20521;-95
2022/08/12 06:27:28;;;;;;;2.17;1.88;;;;;;;;;;2040797;29;20023;-93
2022/08/12 06:28:29;;;;;;;2.33;2.10;;;;;;;;;;2048721;29;20027;-94
2022/08/12 06:29:30;;;;;;;4.93;2.05;;;;;;;;;;2056930;28;20054;-96
2022/08/12 06:30:34;;;;;;;2.38;2.10;;;;;;;;;;2057499;28;20018;-95
2022/08/12 06:31:34;;;;;;;1.95;1.85;;;;;;;;;;2057461;28;20023;-96
2022/08/12 06:32:36;;;;;;;1.85;1.67;;;;;;;;;;2048810;29;20414;-94
2022/08/12 06:33:36;;;;;;;2.03;1.67;;;;;;;;;;2041066;29;20030;-95
2022/08/12 06:34:37;;;;;;;1.85;1.65;;;;;;;;;;2049056;29;20094;-94
2022/08/12 06:35:40;;;;;;;2.95;2.05;;;;;;;;;;2057102;28;20030;-94
2022/08/12 06:36:41;;;;;;;1.70;1.50;;;;;;;;;;2057330;28;20015;-92
2022/08/12 06:37:48;;;;;;;3.78;2.10;;;;;;;;;;2053839;29;20113;-91
2022/08/12 06:38:49;;;;;;;2.22;2.03;;;;;;;;;;2054370;28;20031;-91
2022/08/12 06:39:50;;;;;;;3.00;1.88;;;;;;;;;;2049114;29;20028;-94
2022/08/12 06:42:57;;;;;;;2.05;1.85;;;;;;;;;;2057438;28;20019;-94
2022/08/12 06:43:39;;;;;;;2.92;2.40;;;;;;;;;;2051715;28;20088;-94
2022/08/12 06:44:40;;;;;;;4.70;2.20;;;;;;;;;;2057180;28;20433;-93
2022/08/12 06:45:44;;;;;;;2.72;2.08;;;;;;;;;;2048503;29;20019;-93
2022/08/12 06:46:45;;;;;;;3.00;2.03;;;;;;;;;;2049075;28;20062;-93
2022/08/12 06:47:47;;;;;;;2.28;2.08;;;;;;;;;;2048656;29;20280;-93
2022/08/12 06:48:56;;;;;;;3.13;2.10;;;;;;;;;;2049261;28;20034;-92
2022/08/12 06:49:56;;;;;;;3.67;2.00;;;;;;;;;;2053645;29;20035;-93
2022/08/12 06:50:58;;;;;;;3.13;2.00;;;;;;;;;;2049361;29;20494;-94
2022/08/12 06:51:58;;;;;;;2.28;2.08;;;;;;;;;;2048629;29;20023;-94
2022/08/12 06:52:59;;;;;;;2.55;1.77;;;;;;;;;;2048373;29;20019;-94
2022/08/12 06:54:00;;;;;;;5.65;3.13;;;;;;;;;;2048440;29;20473;-94
2022/08/12 06:55:00;;;;;;;4.65;2.10;;;;;;;;;;2048446;28;20030;-94
2022/08/12 06:56:01;;;;;;;4.90;2.10;;;;;;;;;;2056303;28;20397;-94
2022/08/12 06:57:01;;;;;;;2.35;1.67;;;;;;;;;;2057028;28;20109;-94
2022/08/12 06:58:04;;;;;;;2.28;2.08;;;;;;;;;;2047818;29;20034;-93
2022/08/12 06:59:04;;;;;;;2.25;2.03;;;;;;;;;;2048568;28;20027;-94
2022/08/12 07:00:07;;;;;;;4.53;2.10;;;;;;;;;;2048358;29;20055;-94
2022/08/12 07:01:07;;;;;;;2.63;1.98;;;;;;;;;;2048377;28;20066;-94
2022/08/12 07:02:08;;;;;;;1.80;1.70;;;;;;;;;;2057069;28;20057;-93
2022/08/12 07:03:16;;;;;;;2.33;1.95;;;;;;;;;;2056882;28;20027;-93
2022/08/12 07:04:16;;;;;;;4.53;1.98;;;;;;;;;;2048330;29;20066;-94
2022/08/12 07:05:23;;;;;;;2.08;1.80;;;;;;;;;;2040356;29;20112;-93
2022/08/12 07:06:24;;;;;;;3.35;2.30;;;;;;;;;;2051983;28;20027;-94
2022/08/12 07:07:24;;;;;;;2.25;2.08;;;;;;;;;;2048176;29;20520;-94
2022/08/12 07:08:27;;;;;;;1.92;1.83;;;;;;;;;;2048246;29;20566;-94
2022/08/12 07:09:28;;;;;;;1.90;1.80;;;;;;;;;;2056806;28;20023;-93
2022/08/12 07:10:31;;;;;;;1.83;1.70;;;;;;;;;;2048527;29;20031;-95
2022/08/12 07:11:32;;;;;;;2.10;1.65;;;;;;;;;;2048802;28;20031;-95
2022/08/12 07:12:33;;;;;;;1.50;1.40;;;;;;;;;;1700048;28;10189739;-94
2022/08/12 07:13:45;;;;;;;2.17;1.55;;;;;;;;;;2040529;29;20470;-93
2022/08/12 07:14:50;;;;;;;3.28;1.52;;;;;;;;;;2042126;29;20046;-92
2022/08/12 07:15:55;;;;;;;4.03;1.67;;;;;;;;;;2042402;29;20450;-93
2022/08/12 07:17:00;;;;;;;1.70;1.52;;;;;;;;;;2050461;28;20594;-94
2022/08/12 07:18:19;;;;;;;1.98;1.60;;;;;;;;;;2048546;29;20027;-96
2022/08/12 07:19:20;;;;;;;3.95;1.60;;;;;;;;;;2048446;29;20031;-94
2022/08/12 07:20:21;;;;;;;1.48;1.38;;;;;;;;;;2048526;29;20038;-93
2022/08/12 07:21:21;;;;;;;3.13;1.88;;;;;;;;;;2048341;29;20570;-94
2022/08/12 07:22:22;;;;;;;1.53;1.43;;;;;;;;;;1692026;29;10228327;-94
2022/08/12 07:23:23;;;;;;;2.30;1.60;;;;;;;;;;2048109;28;20509;-93
2022/08/12 07:24:23;;;;;;;2.80;1.50;;;;;;;;;;2048319;29;20034;-93
2022/08/12 07:25:30;;;;;;;1.48;1.38;;;;;;;;;;2048279;29;20050;-94
2022/08/12 07:26:30;;;;;;;1.50;1.40;;;;;;;;;;2048514;29;20110;-94
2022/08/12 07:27:37;;;;;;;2.30;1.70;;;;;;;;;;2048561;29;20079;-94
2022/08/12 07:28:40;;;;;;;1.83;1.52;;;;;;;;;;2048577;28;20135;-94
2022/08/12 07:29:40;;;;;;;1.75;1.65;;;;;;;;;;2040663;29;20486;-94
2022/08/12 07:30:43;;;;;;;1.85;1.50;;;;;;;;;;2048546;29;20031;-93
2022/08/12 07:31:45;;;;;;;1.50;1.40;;;;;;;;;;2048555;29;20016;-91
2022/08/12 07:32:50;;;;;;;1.63;1.35;;;;;;;;;;2040405;29;20470;-90
2022/08/12 07:33:51;;;;;;;1.77;1.67;;;;;;;;;;2051671;28;20023;-92
2022/08/12 07:34:53;;;;;;;1.58;1.48;;;;;;;;;;2048291;29;20469;-93
2022/08/12 07:35:56;;;;;;;1.60;1.50;;;;;;;;;;2040048;29;20043;-92
2022/08/12 07:36:58;;;;;;;2.10;1.70;;;;;;;;;;2048773;28;20038;-94
2022/08/12 07:37:59;;;;;;;3.58;1.63;;;;;;;;;;2055687;29;20019;-94
2022/08/12 07:39:01;;;;;;;2.28;1.63;;;;;;;;;;2047786;29;20577;-95
2022/08/12 07:40:02;;;;;;;2.53;1.83;;;;;;;;;;1703047;29;10002677;-90
2022/08/12 07:41:13;;;;;;;1.70;1.60;;;;;;;;;;2051316;28;20023;-91
2022/08/12 07:42:14;;;;;;;2.97;1.35;;;;;;;;;;2048655;29;20030;-92
2022/08/12 07:43:14;;;;;;;2.40;1.70;;;;;;;;;;1699936;28;10205998;-92
2022/08/12 07:44:14;;;;;;;1.60;1.42;;;;;;;;;;2057465;28;20400;-91